CheckWX is a tool to help pilots better visualize weather data.  It is not intended as a substitute for an official pre-flight weather briefing.

21:07:49 UTC

CWSW METAR
Sparwood / Elk Valley Airport
Sparwood/Elk Valley, Canada
Current

1 hour ago

CWSW 262000Z 17014G22KT 15SM -SHRA BKN050TCU 06/M02 A2991 RMK TCU6 SLP159
Observed
Mar-26 @ 20:00 UTC
Wind
  • 170° at 14 KTS
  • Gusting to 22 KTS
Visibility
15 SM
Flight Rules
VFR
Conditions
Light Rain
Cloud Levels
  • Broken at 5,000' AGL
Temperature
C / 43°F
Dewpoint
-2°C / 28°F
Humidity
57%
Altimeter
29.91" Hg
Pressure
1015.9 hPa
Previous

2 hours ago

CWSW 261900Z 17010G20KT 140V210 15SM -SHRA BKN042TCU 07/M01 A2993 RMK TCU7 SLP163 DENSITY ALT 3800FT
Observed
Mar-26 @ 19:00 UTC
Wind
  • 170° at 10 KTS
  • Gusting to 20 KTS
Visibility
15 SM
Flight Rules
VFR
Conditions
Light Rain
Cloud Levels
  • Broken at 4,200' AGL
Temperature
C / 45°F
Dewpoint
-1°C / 30°F
Humidity
57%
Altimeter
29.93" Hg
Pressure
1016.3 hPa
Previous

3 hours ago

CWSW 261800Z 19008G20KT 15SM -SHRA BKN050TCU 06/M01 A2993 RMK TCU7 SLP163
Observed
Mar-26 @ 18:00 UTC
Wind
  • 190° at 8 KTS
  • Gusting to 20 KTS
Visibility
15 SM
Flight Rules
VFR
Conditions
Light Rain
Cloud Levels
  • Broken at 5,000' AGL
Temperature
C / 43°F
Dewpoint
-1°C / 30°F
Humidity
61%
Altimeter
29.93" Hg
Pressure
1016.3 hPa